Time;durP1;ratioP1;P1;durP2;ratioP2;P2;SDS_P1;SDS_P2;PMS_P1;PMS_P2;Temp;Humidity;BMP_temperature;BMP_pressure;BME280_temperature;BME280_humidity;BME280_pressure;Samples;Min_cycle;Max_cycle;Signal;HPM_P1;HPM_P2
2022/06/18 00:00:47;;;;;;;1.02;0.43;;;;;;;18.92;53.10;99541.41;5114698;28;20027;-64
2022/06/18 00:03:31;;;;;;;0.82;0.50;;;;;;;19.07;52.44;99533.88;5114558;28;20035;-64
2022/06/18 00:06:16;;;;;;;1.35;0.60;;;;;;;19.02;52.05;99533.44;5101750;28;20097;-64
2022/06/18 00:09:01;;;;;;;1.80;0.73;;;;;;;18.93;51.77;99542.25;5098478;28;20047;-64
2022/06/18 00:14:57;;;;;;;1.33;0.50;;;;;;;19.05;51.92;99540.28;5102165;28;20066;-61
2022/06/18 00:17:42;;;;;;;0.60;0.50;;;;;;;19.08;52.67;99538.19;5113383;28;20498;-63
2022/06/18 00:20:33;;;;;;;0.85;0.50;;;;;;;19.15;52.24;99549.13;5098742;28;20112;-63
2022/06/18 00:23:18;;;;;;;1.63;0.73;;;;;;;18.95;53.22;99543.78;5099391;28;20044;-63
2022/06/18 00:26:03;;;;;;;2.85;0.55;;;;;;;19.04;53.39;99541.28;5100764;28;20442;-62
2022/06/18 00:28:48;;;;;;;1.00;0.40;;;;;;;19.17;53.77;99543.66;5110304;28;20382;-63
2022/06/18 00:31:33;;;;;;;1.05;0.60;;;;;;;19.28;51.41;99546.16;5096961;28;20043;-64
2022/06/18 00:34:18;;;;;;;2.47;0.50;;;;;;;19.13;51.40;99543.09;5097613;28;20382;-65
2022/06/18 00:37:05;;;;;;;1.38;0.60;;;;;;;19.74;51.95;99548.13;5098273;28;20051;-63
2022/06/18 00:39:51;;;;;;;1.25;0.50;;;;;;;20.11;51.57;99541.09;5113547;28;20071;-64
2022/06/18 00:42:37;;;;;;;3.25;0.70;;;;;;;20.33;50.45;99543.50;5065064;28;20497;-64
2022/06/18 00:45:27;;;;;;;1.25;0.60;;;;;;;19.97;51.15;99542.41;5112714;28;20475;-64
2022/06/18 00:48:19;;;;;;;1.60;0.40;;;;;;;20.28;50.24;99534.16;5093130;28;20471;-63
2022/06/18 00:51:42;;;;;;;1.08;0.45;;;;;;;20.52;49.61;99531.88;5071486;28;20436;-64
2022/06/18 00:55:03;;;;;;;1.48;0.80;;;;;;;20.61;48.85;99535.47;5001535;28;20069;-66
2022/06/18 00:58:06;;;;;;;2.20;0.43;;;;;;;20.03;48.26;99568.44;5087353;28;20432;-64
2022/06/18 01:00:54;;;;;;;1.85;0.68;;;;;;;19.38;50.24;99572.69;5113049;28;20036;-64
2022/06/18 01:03:39;;;;;;;1.25;0.52;;;;;;;19.16;50.73;99529.53;5083889;28;20043;-64
2022/06/18 01:06:31;;;;;;;1.42;0.50;;;;;;;19.08;51.52;99534.69;5083156;28;20450;-64
2022/06/18 01:09:18;;;;;;;3.85;0.98;;;;;;;19.08;51.53;99537.34;5097657;28;20443;-65
2022/06/18 01:12:04;;;;;;;0.98;0.60;;;;;;;18.91;52.91;99526.47;5075386;28;20073;-64
2022/06/18 01:14:58;;;;;;;2.22;0.70;;;;;;;18.67;53.80;99533.03;5101285;28;20057;-63
2022/06/18 01:17:43;;;;;;;1.48;0.63;;;;;;;18.41;54.50;99530.91;5074274;28;20149;-62
2022/06/18 01:20:28;;;;;;;2.33;0.80;;;;;;;18.49;54.94;99526.75;5098234;28;20039;-64
2022/06/18 01:23:36;;;;;;;1.20;0.60;;;;;;;18.38;55.31;99533.03;5074248;28;20047;-63
2022/06/18 01:26:22;;;;;;;3.08;0.80;;;;;;;18.17;56.13;99526.84;5088253;28;20070;-64
2022/06/18 01:29:07;;;;;;;0.70;0.50;;;;;;;18.02;57.28;99526.34;5084438;28;20052;-64
2022/06/18 01:31:52;;;;;;;0.88;0.55;;;;;;;18.13;57.33;99527.25;5085731;28;20097;-65
2022/06/18 01:34:39;;;;;;;1.90;0.70;;;;;;;18.16;57.21;99530.47;5088641;28;20467;-63
2022/06/18 01:37:27;;;;;;;1.77;0.60;;;;;;;18.03;57.84;99528.03;5081718;28;20051;-64
2022/06/18 01:40:25;;;;;;;2.13;0.80;;;;;;;18.12;57.49;99525.53;5068697;28;20074;-64
2022/06/18 01:43:14;;;;;;;2.75;0.63;;;;;;;18.31;57.49;99530.91;5086786;28;20061;-65
2022/06/18 01:46:01;;;;;;;0.98;0.57;;;;;;;18.48;56.38;99520.59;5097820;28;20084;-64
2022/06/18 01:48:51;;;;;;;1.20;0.60;;;;;;;18.51;56.47;99522.97;5097193;28;20536;-65
2022/06/18 01:51:40;;;;;;;0.90;0.70;;;;;;;18.60;56.89;99518.66;5097977;28;20067;-62
2022/06/18 01:55:01;;;;;;;3.33;0.70;;;;;;;18.69;55.98;99515.16;5083772;28;20043;-65
2022/06/18 01:57:50;;;;;;;1.90;0.70;;;;;;;19.06;54.69;99500.31;5105954;28;20048;-66
2022/06/18 02:00:36;;;;;;;2.20;0.63;;;;;;;20.14;51.62;99503.56;5083014;28;20535;-65
2022/06/18 02:03:22;;;;;;;2.97;0.65;;;;;;;19.43;53.79;99505.84;5062395;28;20055;-64
2022/06/18 02:06:08;;;;;;;2.80;0.70;;;;;;;19.46;53.14;99502.91;5093546;28;20067;-65
2022/06/18 02:08:53;;;;;;;0.82;0.50;;;;;;;18.93;55.11;99508.56;5114084;28;20160;-65
2022/06/18 02:11:39;;;;;;;2.05;0.57;;;;;;;19.33;53.61;99503.22;5098541;28;20043;-64
2022/06/18 02:14:26;;;;;;;1.63;0.80;;;;;;;19.34;53.25;99502.22;5096548;28;20552;-64
2022/06/18 02:17:17;;;;;;;0.90;0.50;;;;;;;19.10;54.01;99498.25;5087887;28;20081;-64
2022/06/18 02:20:13;;;;;;;1.00;0.45;;;;;;;19.16;53.87;99496.84;5100591;28;20028;-66
2022/06/18 02:23:00;;;;;;;1.27;0.55;;;;;;;19.03;53.87;99489.16;5101369;28;20390;-65
2022/06/18 02:25:45;;;;;;;1.60;0.70;;;;;;;18.80;54.43;99505.41;5082808;28;20119;-64
2022/06/18 02:28:42;;;;;;;1.17;0.57;;;;;;;18.78;54.90;99500.22;5096162;28;20031;-65
2022/06/18 02:31:33;;;;;;;1.08;0.60;;;;;;;18.70;54.82;99502.75;5112182;28;20059;-63
2022/06/18 02:34:30;;;;;;;1.85;0.70;;;;;;;18.91;54.49;99496.44;5103231;28;20032;-65
2022/06/18 02:37:26;;;;;;;1.55;0.60;;;;;;;18.98;54.07;99494.06;5095881;28;20050;-63
2022/06/18 02:40:21;;;;;;;1.30;0.70;;;;;;;18.92;54.04;99496.28;5091339;28;20073;-64
2022/06/18 02:43:07;;;;;;;2.67;0.80;;;;;;;18.74;54.73;99498.81;5086176;28;20044;-64
2022/06/18 02:45:54;;;;;;;3.13;0.80;;;;;;;18.67;55.55;99505.69;5088641;28;20100;-63
2022/06/18 02:48:40;;;;;;;2.05;1.00;;;;;;;18.61;55.49;99498.25;5095979;28;20108;-63
2022/06/18 02:51:30;;;;;;;2.28;0.65;;;;;;;18.33;56.21;99507.75;5096257;28;20032;-65
2022/06/18 02:54:18;;;;;;;2.10;0.80;;;;;;;18.31;56.24;99504.38;5112633;28;20032;-64
2022/06/18 02:57:08;;;;;;;1.58;0.60;;;;;;;18.12;56.69;99502.53;5099833;28;20031;-62
2022/06/18 02:59:52;;;;;;;1.80;0.68;;;;;;;18.11;57.38;99495.53;5115668;28;20039;-60
2022/06/18 03:02:37;;;;;;;1.25;0.73;;;;;;;17.97;57.64;99488.78;5086343;28;20042;-63
2022/06/18 03:05:27;;;;;;;1.08;0.70;;;;;;;18.02;57.04;99491.88;5099830;28;20433;-60
2022/06/18 03:08:13;;;;;;;1.77;0.75;;;;;;;18.08;57.81;99488.69;5116286;28;20039;-62
2022/06/18 03:14:04;;;;;;;2.47;0.70;;;;;;;18.30;56.63;99489.47;5110827;28;20062;-61
2022/06/18 03:16:50;;;;;;;1.58;0.68;;;;;;;18.34;56.75;99492.69;5107835;28;20104;-61
2022/06/18 03:19:46;;;;;;;0.75;0.60;;;;;;;18.63;55.78;99489.19;5115454;28;20055;-61
2022/06/18 03:22:31;;;;;;;1.20;0.70;;;;;;;18.42;55.90;99492.81;5099968;28;20119;-60
2022/06/18 03:25:16;;;;;;;0.98;0.50;;;;;;;18.59;56.15;99501.91;5100671;28;20418;-60
2022/06/18 03:28:01;;;;;;;3.53;0.60;;;;;;;18.61;56.23;99504.41;5085486;28;20424;-62
2022/06/18 03:30:46;;;;;;;2.50;0.73;;;;;;;18.43;56.39;99507.75;5083459;28;20060;-60
2022/06/18 03:33:31;;;;;;;1.25;0.65;;;;;;;18.16;57.34;99511.06;5101986;28;20039;-62
2022/06/18 03:36:22;;;;;;;2.00;0.90;;;;;;;18.45;57.06;99507.63;5099860;28;20048;-61
2022/06/18 03:39:09;;;;;;;1.55;0.90;;;;;;;18.28;57.38;99502.00;5086976;28;20063;-61
2022/06/18 03:41:55;;;;;;;1.60;0.70;;;;;;;18.18;57.96;99501.19;5099519;28;20059;-61
2022/06/18 03:44:41;;;;;;;1.35;0.70;;;;;;;18.27;57.53;99510.94;5086036;28;20063;-61
2022/06/18 03:47:26;;;;;;;2.20;0.90;;;;;;;18.16;57.60;99503.13;5078645;28;20094;-61
2022/06/18 03:50:17;;;;;;;1.70;0.90;;;;;;;18.26;57.53;99498.69;5097299;28;20043;-61
2022/06/18 03:53:02;;;;;;;1.45;0.77;;;;;;;18.20;57.85;99497.41;5099278;28;20035;-62
2022/06/18 03:55:47;;;;;;;1.02;0.65;;;;;;;18.41;56.48;99499.09;5102737;28;20047;-62
2022/06/18 03:58:32;;;;;;;1.40;0.90;;;;;;;18.47;56.63;99495.06;5114115;28;20048;-62
2022/06/18 04:01:21;;;;;;;2.08;1.00;;;;;;;18.23;57.74;99501.56;5099759;28;20059;-61
2022/06/18 04:04:08;;;;;;;3.03;1.10;;;;;;;18.14;57.89;99507.72;5084729;28;20458;-61
2022/06/18 04:06:59;;;;;;;3.47;0.80;;;;;;;18.43;56.99;99509.56;5098514;28;20152;-62
2022/06/18 04:09:53;;;;;;;1.00;0.70;;;;;;;17.81;59.14;99514.00;5113914;28;20044;-61
2022/06/18 04:12:42;;;;;;;1.73;0.88;;;;;;;17.89;59.44;99509.88;5093775;28;20118;-60
2022/06/18 04:15:30;;;;;;;4.22;1.00;;;;;;;17.94;58.89;99504.97;5096034;28;20067;-62
2022/06/18 04:18:22;;;;;;;;;;;;;;;18.09;58.35;99500.97;5106499;28;20046;-60
2022/06/18 04:21:08;;;;;;;1.58;1.05;;;;;;;18.10;58.76;99513.25;5099040;28;19956;-61
2022/06/18 04:23:56;;;;;;;1.55;0.90;;;;;;;18.50;57.42;99513.34;5075321;28;20497;-59
2022/06/18 04:26:43;;;;;;;1.63;0.73;;;;;;;18.47;57.83;99517.09;5096705;28;20036;-62
2022/06/18 04:29:30;;;;;;;2.25;1.05;;;;;;;18.18;58.22;99515.25;5112653;28;20399;-61
2022/06/18 04:32:14;;;;;;;1.75;0.80;;;;;;;18.13;58.42;99511.34;5084013;28;20046;-60
2022/06/18 04:34:59;;;;;;;4.55;1.00;;;;;;;18.17;57.92;99512.72;5080834;28;20040;-61
2022/06/18 04:38:12;;;;;;;1.70;0.80;;;;;;;18.13;58.55;99512.19;5091502;28;20039;-60
2022/06/18 04:41:13;;;;;;;1.88;0.98;;;;;;;18.05;58.68;99514.66;5080348;28;20032;-58
2022/06/18 04:44:00;;;;;;;1.15;0.80;;;;;;;18.05;59.33;99512.00;5098700;28;20092;-60
2022/06/18 04:46:49;;;;;;;1.40;0.90;;;;;;;18.31;58.32;99517.66;5098096;28;20104;-62
2022/06/18 04:49:34;;;;;;;2.05;0.93;;;;;;;18.39;60.19;99522.28;5094237;28;20066;-62
2022/06/18 04:52:19;;;;;;;1.98;0.90;;;;;;;18.70;57.46;99516.81;5095472;28;20063;-62
2022/06/18 04:55:15;;;;;;;3.05;1.00;;;;;;;19.09;57.04;99520.44;5098126;28;20055;-58
2022/06/18 04:58:01;;;;;;;1.50;0.77;;;;;;;19.02;56.88;99521.97;5090461;28;20035;-63
2022/06/18 05:00:46;;;;;;;1.10;0.70;;;;;;;19.57;57.84;99525.78;5094884;28;20039;-67
2022/06/18 05:03:54;;;;;;;2.90;1.00;;;;;;;20.17;56.27;99529.06;5113372;28;20032;-61
2022/06/18 05:06:53;;;;;;;3.30;0.70;;;;;;;20.72;52.06;99521.94;5093311;28;20097;-62
2022/06/18 05:09:48;;;;;;;1.35;0.70;;;;;;;21.17;52.76;99525.47;5107934;28;20486;-62
2022/06/18 05:12:49;;;;;;;2.77;1.37;;;;;;;21.18;52.92;99526.31;5085576;28;20032;-63
2022/06/18 05:15:53;;;;;;;1.52;0.73;;;;;;;21.02;52.54;99532.34;5116516;28;20695;-61
2022/06/18 05:18:44;;;;;;;5.13;1.30;;;;;;;21.06;54.00;99528.38;5095276;28;20101;-63
2022/06/18 05:21:29;;;;;;;2.38;1.33;;;;;;;21.12;55.20;99527.75;5097412;28;20034;-62
2022/06/18 05:24:16;;;;;;;2.28;0.85;;;;;;;21.25;53.31;99526.53;5098375;28;20054;-59
2022/06/18 05:27:01;;;;;;;2.33;1.50;;;;;;;21.09;56.10;99533.41;5098016;28;20378;-59
2022/06/18 05:29:47;;;;;;;3.50;1.92;;;;;;;21.13;57.66;99534.78;5095026;28;20059;-61
2022/06/18 05:32:32;;;;;;;2.25;1.30;;;;;;;21.16;56.06;99529.13;5080276;28;20048;-64
2022/06/18 05:35:19;;;;;;;2.50;1.10;;;;;;;21.07;52.19;99523.91;5097751;28;20032;-62
2022/06/18 05:38:05;;;;;;;2.88;1.90;;;;;;;20.97;56.41;99527.47;5097843;28;20501;-66
2022/06/18 05:40:51;;;;;;;5.18;2.40;;;;;;;21.08;58.90;99526.41;5093996;28;20034;-63
2022/06/18 05:43:36;;;;;;;15.40;5.28;;;;;;;21.24;59.13;99531.00;5086117;28;20031;-63
2022/06/18 05:46:22;;;;;;;2.95;1.83;;;;;;;21.51;55.90;99529.16;5082826;28;20042;-62
2022/06/18 05:49:08;;;;;;;5.57;2.13;;;;;;;21.63;56.85;99523.56;5069274;28;20114;-63
2022/06/18 05:51:52;;;;;;;3.90;1.23;;;;;;;22.09;53.49;99533.09;5096575;28;20031;-63
2022/06/18 05:54:38;;;;;;;1.75;0.90;;;;;;;22.02;52.28;99522.25;5097634;28;20039;-68
2022/06/18 05:57:50;;;;;;;8.98;1.98;;;;;;;22.22;51.05;99527.31;5097332;28;20031;-63
2022/06/18 06:00:45;;;;;;;1.23;0.73;;;;;;;22.40;50.75;99521.84;5097138;28;20035;-65
2022/06/18 06:03:31;;;;;;;6.30;1.95;;;;;;;22.14;53.36;99522.78;5090751;28;20448;-66
2022/06/18 06:06:15;;;;;;;5.72;3.38;;;;;;;22.46;54.74;99521.19;5084108;28;20486;-67
2022/06/18 06:09:04;;;;;;;3.05;1.63;;;;;;;22.32;55.52;99524.50;5094434;28;20039;-67
2022/06/18 06:11:50;;;;;;;5.38;1.60;;;;;;;22.22;56.34;99524.63;5095254;28;20032;-68
2022/06/18 06:14:35;;;;;;;3.28;2.10;;;;;;;22.37;57.51;99524.84;5096669;28;20097;-68
2022/06/18 06:17:24;;;;;;;2.58;1.52;;;;;;;22.15;58.03;99521.78;5078853;28;20024;-69
2022/06/18 06:20:19;;;;;;;3.35;1.63;;;;;;;22.30;58.58;99518.47;5089235;28;20032;-70
2022/06/18 06:23:08;;;;;;;3.00;1.95;;;;;;;22.58;56.05;99528.88;5090684;28;20036;-72
2022/06/18 06:25:53;;;;;;;4.53;2.10;;;;;;;22.62;58.12;99520.38;5091247;28;20044;-67
2022/06/18 06:28:38;;;;;;;2.42;1.77;;;;;;;23.10;56.80;99519.72;5082241;28;20087;-66
2022/06/18 06:31:24;;;;;;;7.90;1.50;;;;;;;23.24;58.47;99514.69;5092003;28;20395;-70
2022/06/18 06:34:08;;;;;;;2.83;1.15;;;;;;;23.55;56.65;99518.47;5056203;28;20463;-69
2022/06/18 06:36:56;;;;;;;5.38;1.73;;;;;;;23.85;55.11;99522.22;5072353;28;20032;-72
2022/06/18 06:39:40;;;;;;;2.17;1.27;;;;;;;24.19;54.20;99519.38;5091736;28;20368;-63
2022/06/18 06:42:25;;;;;;;2.42;1.08;;;;;;;23.94;54.02;99520.31;5090923;28;20039;-69
2022/06/18 06:45:14;;;;;;;2.08;1.27;;;;;;;23.77;55.29;99519.56;5075734;28;20039;-66
2022/06/18 06:48:00;;;;;;;2.35;1.50;;;;;;;23.58;55.68;99521.66;5091485;28;20056;-65
2022/06/18 06:50:46;;;;;;;2.30;1.30;;;;;;;23.89;54.72;99520.03;5078277;28;20436;-64
2022/06/18 06:53:31;;;;;;;2.53;1.40;;;;;;;23.50;56.05;99516.34;5085372;28;20059;-65
2022/06/18 06:59:22;;;;;;;4.10;1.55;;;;;;;23.77;55.14;99513.38;5089332;28;20391;-65
2022/06/18 07:02:18;;;;;;;2.72;1.42;;;;;;;23.51;55.83;99518.00;5089846;28;20044;-71
2022/06/18 07:05:03;;;;;;;4.57;1.50;;;;;;;24.44;53.56;99519.22;5074211;28;20044;-67
2022/06/18 07:07:47;;;;;;;3.03;1.55;;;;;;;25.09;50.99;99524.25;5044996;28;20051;-65
2022/06/18 07:10:33;;;;;;;2.40;1.65;;;;;;;25.28;50.10;99525.56;5090257;28;20048;-64
2022/06/18 07:13:19;;;;;;;3.25;1.48;;;;;;;25.46;47.57;99517.16;5075017;28;20487;-64
2022/06/18 07:16:07;;;;;;;4.00;1.00;;;;;;;25.16;47.64;99519.00;5093149;28;20044;-66
2022/06/18 07:18:53;;;;;;;2.38;1.50;;;;;;;25.53;47.85;99509.22;5089437;28;20109;-66
2022/06/18 07:21:38;;;;;;;1.88;1.23;;;;;;;25.62;45.80;99515.38;5094051;28;20047;-63
2022/06/18 07:24:22;;;;;;;2.25;0.93;;;;;;;25.53;44.21;99511.91;5111882;28;20035;-63
2022/06/18 07:27:07;;;;;;;1.92;1.00;;;;;;;25.60;45.23;99512.00;5096659;28;20463;-64
2022/06/18 07:29:52;;;;;;;2.65;0.90;;;;;;;25.88;45.67;99522.09;5112318;28;20471;-61
2022/06/18 07:32:44;;;;;;;1.88;0.98;;;;;;;24.92;43.66;99527.09;5111405;28;20093;-62
2022/06/18 07:35:31;;;;;;;2.60;1.00;;;;;;;25.17;45.34;99516.16;5097317;28;20110;-62
2022/06/18 07:38:16;;;;;;;1.50;0.90;;;;;;;25.47;46.71;99520.69;5098214;28;20088;-61
2022/06/18 07:41:01;;;;;;;1.63;1.00;;;;;;;26.00;43.31;99527.78;5105714;28;20039;-64
2022/06/18 07:43:54;;;;;;;2.13;1.15;;;;;;;26.47;44.66;99524.81;5084681;28;20156;-60
2022/06/18 07:46:39;;;;;;;1.17;0.85;;;;;;;27.54;41.26;99515.94;5109239;28;20416;-66
2022/06/18 07:49:25;;;;;;;9.15;1.50;;;;;;;27.31;41.23;99518.88;5099270;28;20047;-62
2022/06/18 07:52:12;;;;;;;2.67;1.38;;;;;;;27.58;41.29;99510.97;5084969;28;20039;-74
2022/06/18 07:54:58;;;;;;;1.63;1.08;;;;;;;28.11;39.52;99504.16;5079553;28;20113;-69
2022/06/18 07:57:43;;;;;;;2.95;1.20;;;;;;;27.34;41.62;99510.41;5112506;28;20039;-58
2022/06/18 08:00:28;;;;;;;4.90;1.20;;;;;;;27.54;41.13;99512.41;5096724;28;20448;-59
2022/06/18 08:03:14;;;;;;;2.53;1.00;;;;;;;27.47;41.84;99514.22;5069260;28;20382;-60
2022/06/18 08:05:59;;;;;;;1.20;0.90;;;;;;;27.34;40.93;99515.78;5111610;28;20039;-60
2022/06/18 08:08:43;;;;;;;5.13;1.10;;;;;;;27.95;40.37;99505.34;5113081;28;20039;-59
2022/06/18 08:11:29;;;;;;;3.53;1.08;;;;;;;28.32;39.38;99499.66;5071439;28;20048;-63
2022/06/18 08:14:14;;;;;;;1.20;0.80;;;;;;;28.23;40.03;99503.56;5102034;28;20387;-64
2022/06/18 08:17:00;;;;;;;1.90;1.00;;;;;;;27.81;38.90;99499.09;5113977;28;20040;-60
2022/06/18 08:19:44;;;;;;;2.78;1.45;;;;;;;27.38;46.25;99502.78;5098589;28;20052;-64
2022/06/18 08:22:30;;;;;;;1.85;1.00;;;;;;;27.78;38.78;99505.72;5098761;28;20055;-62
2022/06/18 08:25:18;;;;;;;4.43;1.13;;;;;;;28.70;37.00;99497.41;5085028;28;20043;-65
2022/06/18 08:28:08;;;;;;;1.92;1.20;;;;;;;28.68;40.12;99494.13;5104540;28;20035;-69
2022/06/18 08:30:53;;;;;;;2.97;1.25;;;;;;;28.44;39.26;99494.53;5098506;28;20462;-69
2022/06/18 08:33:38;;;;;;;3.33;0.80;;;;;;;28.74;36.45;99494.09;5095890;28;20117;-69
2022/06/18 08:36:23;;;;;;;1.48;0.93;;;;;;;28.95;40.61;99481.47;5090044;28;20038;-67
2022/06/18 08:39:09;;;;;;;2.38;1.10;;;;;;;28.84;36.80;99484.78;5100676;28;20039;-73
2022/06/18 08:42:42;;;;;;;2.85;0.90;;;;;;;29.10;36.63;99472.34;5095961;28;20044;-73
2022/06/18 08:45:40;;;;;;;1.65;0.90;;;;;;;30.13;35.33;99467.16;5112199;28;20042;-77
2022/06/18 08:48:56;;;;;;;2.75;0.90;;;;;;;29.41;33.72;99469.97;5112228;28;20539;-78
2022/06/18 08:51:59;;;;;;;1.98;0.80;;;;;;;29.04;34.42;99465.91;5113571;28;20390;-76
2022/06/18 08:54:47;;;;;;;1.73;0.80;;;;;;;29.20;34.06;99461.13;5113097;28;20039;-78
2022/06/18 08:57:55;;;;;;;1.25;0.70;;;;;;;28.65;34.55;99463.84;5113233;28;20063;-77
2022/06/18 09:01:03;;;;;;;2.58;0.77;;;;;;;28.74;33.17;99452.88;5096407;28;20074;-75
2022/06/18 09:04:25;;;;;;;2.47;0.70;;;;;;;28.80;34.31;99441.25;5094779;28;20051;-73
2022/06/18 09:07:43;;;;;;;1.70;0.70;;;;;;;29.85;33.27;99437.84;5112847;28;20036;-74
2022/06/18 09:10:47;;;;;;;3.55;0.90;;;;;;;28.78;33.39;99437.94;5109330;28;20039;-77
2022/06/18 09:13:57;;;;;;;2.47;0.50;;;;;;;28.24;34.77;99437.91;5102510;28;20097;-69
2022/06/18 09:17:17;;;;;;;1.00;0.73;;;;;;;29.31;32.94;99438.88;5122599;28;20543;-67
2022/06/18 09:20:15;;;;;;;1.88;0.75;;;;;;;28.52;31.42;99440.44;5099566;28;20074;-68
2022/06/18 09:23:15;;;;;;;1.05;0.70;;;;;;;28.35;32.74;99439.19;5113944;28;20039;-64
2022/06/18 09:26:03;;;;;;;;;;;;;;;29.16;34.08;99422.94;5110821;28;20039;-64
2022/06/18 09:29:01;;;;;;;0.93;0.60;;;;;;;28.44;32.21;99423.66;5096792;28;19938;-66
2022/06/18 09:31:55;;;;;;;2.03;0.82;;;;;;;28.21;32.27;99430.22;5108054;28;20040;-65
2022/06/18 09:34:50;;;;;;;3.25;0.73;;;;;;;28.72;36.72;99425.28;5111824;28;20036;-64
2022/06/18 09:37:52;;;;;;;1.27;0.57;;;;;;;28.83;30.27;99432.75;5099330;28;20111;-64
2022/06/18 09:40:48;;;;;;;4.00;0.70;;;;;;;29.88;29.48;99424.72;5096278;28;20436;-64
2022/06/18 09:43:51;;;;;;;1.90;0.63;;;;;;;29.82;29.36;99419.38;5112426;28;20508;-64
2022/06/18 09:46:59;;;;;;;1.38;0.50;;;;;;;29.98;31.46;99423.44;5111968;28;20047;-65
2022/06/18 09:49:47;;;;;;;2.55;0.90;;;;;;;31.19;28.82;99421.56;5103577;28;20439;-63
2022/06/18 09:52:35;;;;;;;4.70;1.00;;;;;;;30.44;31.27;99423.34;5088874;28;20053;-63
2022/06/18 09:55:34;;;;;;;1.05;0.60;;;;;;;31.52;27.52;99416.81;5106977;28;20067;-67
2022/06/18 09:58:46;;;;;;;1.40;0.68;;;;;;;31.59;30.36;99412.16;5091807;28;20035;-67
2022/06/18 10:01:46;;;;;;;2.90;0.90;;;;;;;31.95;28.62;99415.03;5108923;28;20106;-65
2022/06/18 10:07:40;;;;;;;1.08;0.60;;;;;;;31.60;26.86;99394.03;5094345;28;20080;-63
2022/06/18 10:10:28;;;;;;;0.75;0.60;;;;;;;31.40;27.90;99397.00;5110142;28;20485;-65
2022/06/18 10:13:19;;;;;;;1.60;0.60;;;;;;;31.61;27.68;99392.97;5102343;28;20142;-65
2022/06/18 10:16:09;;;;;;;;;;;;;;;31.76;29.34;99392.53;5096395;28;20043;-65
2022/06/18 10:19:26;;;;;;;1.00;0.40;;;;;;;32.11;27.57;99385.59;5089235;28;20409;-65
2022/06/18 10:22:31;;;;;;;1.48;0.60;;;;;;;32.54;25.17;99382.84;5068753;28;20117;-64
2022/06/18 10:25:29;;;;;;;0.90;0.55;;;;;;;30.99;28.19;99378.53;5082250;28;20032;-65
2022/06/18 10:28:40;;;;;;;3.08;0.93;;;;;;;31.08;29.32;99379.88;5083392;28;20044;-65
2022/06/18 10:31:34;;;;;;;5.75;0.70;;;;;;;31.49;28.97;99381.25;5090680;28;20105;-63
2022/06/18 10:34:30;;;;;;;2.80;0.80;;;;;;;32.63;26.13;99381.41;5085440;28;20791;-64
2022/06/18 10:37:45;;;;;;;4.38;0.95;;;;;;;33.29;26.69;99377.66;5090511;28;20036;-66
2022/06/18 10:40:43;;;;;;;2.17;0.85;;;;;;;32.59;29.13;99372.13;5091797;28;20036;-66
2022/06/18 10:43:31;;;;;;;2.10;0.65;;;;;;;32.42;26.71;99364.66;5083260;28;20114;-65
2022/06/18 10:46:20;;;;;;;2.92;0.90;;;;;;;32.72;32.06;99356.66;5087969;28;20040;-65
2022/06/18 10:49:06;;;;;;;1.52;0.90;;;;;;;31.39;27.62;99373.69;5092013;28;20442;-65
2022/06/18 10:51:51;;;;;;;2.35;0.88;;;;;;;32.11;30.82;99354.97;5091636;28;20036;-66
2022/06/18 10:54:37;;;;;;;1.25;0.75;;;;;;;30.82;28.22;99356.66;5091167;28;20032;-64
2022/06/18 10:57:26;;;;;;;1.77;0.70;;;;;;;32.14;28.51;99351.78;5085143;28;20032;-63
2022/06/18 11:00:25;;;;;;;1.90;0.70;;;;;;;30.94;27.80;99352.19;5086904;28;20097;-64
2022/06/18 11:03:22;;;;;;;1.55;0.60;;;;;;;30.39;31.29;99347.53;5091282;28;20044;-64
2022/06/18 11:06:13;;;;;;;4.82;0.60;;;;;;;31.86;31.41;99340.53;5086722;28;20105;-64
2022/06/18 11:09:02;;;;;;;0.98;0.38;;;;;;;30.73;28.60;99340.72;5089391;28;20253;-64
2022/06/18 11:11:53;;;;;;;2.55;0.95;;;;;;;31.31;29.48;99343.19;5083283;28;20042;-65
2022/06/18 11:14:42;;;;;;;3.38;0.88;;;;;;;32.07;29.16;99324.84;5097743;28;20071;-64
2022/06/18 11:17:41;;;;;;;2.83;0.57;;;;;;;29.45;30.41;99337.13;5104406;28;20036;-64
2022/06/18 11:20:29;;;;;;;2.63;0.70;;;;;;;30.16;30.47;99327.34;5094208;28;20043;-64
2022/06/18 11:23:16;;;;;;;1.98;0.70;;;;;;;31.53;27.87;99326.47;5096580;28;20111;-65
2022/06/18 11:26:10;;;;;;;2.25;0.63;;;;;;;31.23;28.30;99316.44;5079390;28;20036;-64
2022/06/18 11:29:12;;;;;;;0.95;0.55;;;;;;;31.63;27.96;99316.97;5068056;28;20100;-64
2022/06/18 11:32:01;;;;;;;2.20;0.57;;;;;;;32.10;28.63;99313.53;5094759;28;20064;-65
2022/06/18 11:34:50;;;;;;;0.73;0.50;;;;;;;31.32;28.25;99304.22;5073645;28;20122;-64
2022/06/18 11:37:35;;;;;;;1.40;0.75;;;;;;;30.97;28.31;99303.06;5094071;28;20111;-64
2022/06/18 11:40:21;;;;;;;1.80;0.68;;;;;;;32.57;30.07;99299.16;5078261;28;20467;-64
2022/06/18 11:43:19;;;;;;;2.10;0.80;;;;;;;33.34;27.82;99297.41;5094391;28;20107;-65
2022/06/18 11:46:27;;;;;;;1.08;0.55;;;;;;;33.08;26.05;99295.03;5072918;28;20032;-65
2022/06/18 11:49:21;;;;;;;2.45;0.60;;;;;;;32.32;25.75;99302.09;5065374;28;20036;-64
2022/06/18 11:52:12;;;;;;;1.38;0.47;;;;;;;33.16;26.13;99294.66;5078135;28;20040;-64
2022/06/18 11:55:09;;;;;;;2.10;0.65;;;;;;;32.62;23.48;99295.72;5094475;28;20503;-66
2022/06/18 11:58:02;;;;;;;1.33;0.52;;;;;;;32.75;24.11;99296.53;5093652;28;20070;-63
2022/06/18 12:00:52;;;;;;;3.63;0.93;;;;;;;33.24;23.11;99289.88;5065183;28;20059;-66
2022/06/18 12:03:50;;;;;;;1.10;0.60;;;;;;;33.20;25.54;99286.03;5093629;28;20036;-65
2022/06/18 12:06:56;;;;;;;1.70;0.50;;;;;;;33.94;23.39;99288.91;5093531;28;20044;-66
2022/06/18 12:09:42;;;;;;;1.50;0.60;;;;;;;33.54;27.13;99276.03;5084448;28;20387;-66
2022/06/18 12:12:54;;;;;;;0.98;0.70;;;;;;;34.51;25.09;99268.81;5093101;28;20063;-65
2022/06/18 12:15:48;;;;;;;1.35;0.57;;;;;;;33.08;25.66;99267.09;5078425;28;20075;-65
2022/06/18 12:18:55;;;;;;;0.60;0.40;;;;;;;33.60;24.60;99268.81;5101863;28;20065;-65
2022/06/18 12:21:52;;;;;;;1.02;0.50;;;;;;;32.19;25.94;99262.50;5104672;28;20063;-65
2022/06/18 12:24:53;;;;;;;2.95;0.55;;;;;;;32.53;25.92;99259.22;5099551;28;20046;-65
2022/06/18 12:28:02;;;;;;;1.33;0.57;;;;;;;33.07;25.71;99247.22;5114448;28;20427;-65
2022/06/18 12:31:00;;;;;;;1.92;0.40;;;;;;;32.01;26.72;99250.75;5088580;28;20466;-65
2022/06/18 12:34:00;;;;;;;1.10;0.52;;;;;;;31.68;28.39;99247.53;5093252;28;20059;-66
2022/06/18 12:36:52;;;;;;;0.65;0.43;;;;;;;32.62;26.46;99243.41;5099039;28;20469;-67
2022/06/18 12:40:04;;;;;;;1.83;0.60;;;;;;;32.32;28.52;99245.19;5113451;28;20378;-66
2022/06/18 12:43:12;;;;;;;1.83;0.50;;;;;;;33.05;28.43;99241.25;5102814;28;20039;-66
2022/06/18 12:46:06;;;;;;;2.20;0.40;;;;;;;34.00;25.52;99237.13;5100718;28;20039;-66
2022/06/18 12:49:09;;;;;;;0.88;0.45;;;;;;;33.09;25.38;99233.44;5085709;28;20035;-66
2022/06/18 12:52:11;;;;;;;1.35;0.60;;;;;;;33.32;26.26;99237.94;5113659;28;20047;-67
2022/06/18 12:55:13;;;;;;;0.90;0.47;;;;;;;33.25;25.61;99229.13;5113340;28;20471;-66
2022/06/18 12:58:14;;;;;;;1.08;0.38;;;;;;;30.36;26.95;99232.63;5100392;28;20445;-67
2022/06/18 13:01:02;;;;;;;2.38;0.80;;;;;;;31.54;25.97;99236.09;5106361;28;20043;-64
2022/06/18 13:04:05;;;;;;;2.05;0.65;;;;;;;31.55;25.62;99228.81;5098924;28;20031;-66
2022/06/18 13:06:56;;;;;;;2.30;0.70;;;;;;;33.46;26.20;99233.00;5098155;28;20046;-64
2022/06/18 13:09:51;;;;;;;0.82;0.52;;;;;;;32.66;25.39;99220.97;5107479;28;20050;-65
2022/06/18 13:13:01;;;;;;;1.98;0.57;;;;;;;31.69;25.53;99224.84;5093638;28;20075;-67
2022/06/18 13:15:58;;;;;;;1.75;0.40;;;;;;;32.50;25.16;99210.84;5091828;28;20067;-66
2022/06/18 13:19:06;;;;;;;2.08;0.40;;;;;;;32.33;25.48;99217.84;5094532;28;20055;-65
2022/06/18 13:21:51;;;;;;;1.05;0.50;;;;;;;32.55;26.12;99222.69;5099722;28;20047;-65
2022/06/18 13:28:29;;;;;;;1.50;0.63;;;;;;;33.80;22.95;99205.88;5113022;28;20044;-65
2022/06/18 13:31:18;;;;;;;2.15;0.52;;;;;;;33.48;25.68;99201.00;5099261;28;20036;-66
2022/06/18 13:34:35;;;;;;;2.30;0.75;;;;;;;33.91;25.81;99193.28;5098316;28;20493;-65
2022/06/18 13:37:32;;;;;;;3.35;0.60;;;;;;;33.63;26.33;99197.75;5083390;28;20046;-66
2022/06/18 13:40:23;;;;;;;2.78;0.50;;;;;;;33.79;22.58;99187.09;5112139;28;20063;-65
2022/06/18 13:43:16;;;;;;;1.35;0.50;;;;;;;32.35;23.83;99176.97;5097646;28;20040;-68
2022/06/18 13:46:20;;;;;;;1.00;0.50;;;;;;;31.82;24.28;99175.03;5084751;28;20047;-66